Terminal Aerodrome Forecast
Issued by NWS Des Moines, IA

Home | Current Version | Previous Version | Text Only | Print | Product List | Glossary On
Versions: 1 2 3 4 5 6 7 8 9 10 11 12 13 14 15 16 17 18 19 20 21 22 23 24 25 26 27 28 29 30 31 32 33 34 35 36 37 38 39 40 41 42 43 44 45 46 47 48 49 50
000
FTUS43 KDMX 310520
TAFDSM
TAF
KDSM 310520Z 3106/0106 15005KT P6SM SCT300
     FM310900 16004KT 5SM BR SCT005
     FM311100 16004KT 3SM BR SCT005 BKN011
     FM311500 17008KT 6SM BR SCT011
     FM311800 18011G17KT P6SM SCT025
     FM010000 16006KT P6SM SKC=

USA.gov is the U.S. government's official web portal to all federal, state and local government web resources and services.